createdAt,value
2019-01-17T00:00:22.489Z,32.60
2019-01-17T00:05:51.370Z,33.17
2019-01-17T00:11:12.106Z,32.20
2019-01-17T00:16:29.339Z,31.83
2019-01-17T00:21:56.018Z,32.97
2019-01-17T00:27:34.188Z,34.80
2019-01-17T00:33:16.331Z,34.80
2019-01-17T00:38:44.021Z,33.50
2019-01-17T00:44:07.007Z,32.50
2019-01-17T00:49:44.130Z,34.70
2019-01-17T00:55:14.075Z,32.97
2019-01-17T01:00:38.126Z,34.67
2019-01-17T01:06:08.303Z,32.57
2019-01-17T01:11:37.198Z,33.23
2019-01-17T01:17:19.580Z,32.20
2019-01-17T01:22:47.627Z,32.20
2019-01-17T01:28:20.801Z,35.83
2019-01-17T01:33:43.366Z,34.23
2019-01-17T01:39:17.638Z,34.30
2019-01-17T01:44:56.670Z,33.77
2019-01-17T01:50:23.634Z,36.13
2019-01-17T01:55:29.024Z,37.70
2019-01-17T02:00:34.194Z,35.50
2019-01-17T02:05:39.350Z,35.97
2019-01-17T02:10:44.355Z,42.17
2019-01-17T02:15:49.428Z,38.20
2019-01-17T02:20:54.444Z,37.23
2019-01-17T02:25:59.828Z,39.77
2019-01-17T02:31:05.206Z,39.13
2019-01-17T02:36:10.231Z,36.33
2019-01-17T02:41:15.314Z,35.70
2019-01-17T02:46:21.573Z,35.17
2019-01-17T02:51:27.142Z,36.60
2019-01-17T02:56:32.090Z,36.23
2019-01-17T03:01:37.167Z,35.90
2019-01-17T03:06:42.324Z,35.10
2019-01-17T03:11:47.342Z,35.97
2019-01-17T03:16:52.748Z,39.50
2019-01-17T03:21:57.987Z,35.67
2019-01-17T03:27:03.010Z,37.57
2019-01-17T03:32:08.607Z,39.73
2019-01-17T03:37:13.624Z,41.13
2019-01-17T03:42:18.954Z,36.53
2019-01-17T03:47:23.931Z,43.43
2019-01-17T03:52:29.012Z,38.43
2019-01-17T03:57:34.771Z,38.43
2019-01-17T04:02:40.228Z,36.63
2019-01-17T04:07:45.315Z,38.60
2019-01-17T04:12:50.461Z,36.00
2019-01-17T04:17:55.538Z,41.77
2019-01-17T04:23:00.596Z,32.97
2019-01-17T04:28:05.640Z,33.70
2019-01-17T04:33:10.700Z,35.20
2019-01-17T04:38:15.751Z,32.77
2019-01-17T04:43:20.915Z,36.13
2019-01-17T04:48:25.906Z,33.20
2019-01-17T04:53:31.065Z,37.90
2019-01-17T04:58:37.571Z,34.90
2019-01-17T05:03:46.251Z,33.27
2019-01-17T05:08:56.349Z,33.53
2019-01-17T05:14:01.381Z,33.77
2019-01-17T05:19:06.628Z,33.47
2019-01-17T05:24:11.636Z,37.37
2019-01-17T05:29:16.626Z,36.73
2019-01-17T05:34:22.186Z,32.30
2019-01-17T05:39:27.243Z,30.53
2019-01-17T05:44:32.744Z,31.93
2019-01-17T05:49:38.969Z,36.83
2019-01-17T05:54:44.125Z,32.17
2019-01-17T05:59:49.618Z,37.23
2019-01-17T06:04:54.994Z,35.10
2019-01-17T06:10:00.263Z,35.17
2019-01-17T06:15:06.337Z,32.83
2019-01-17T06:20:12.892Z,30.23
2019-01-17T06:25:18.182Z,35.53
2019-01-17T06:30:28.306Z,35.97
2019-01-17T06:35:33.438Z,31.73
2019-01-17T06:40:38.635Z,37.13
2019-01-17T06:45:43.997Z,29.70
2019-01-17T06:50:50.007Z,30.20
2019-01-17T06:55:55.117Z,26.97
2019-01-17T07:01:01.142Z,27.17
2019-01-17T07:06:06.235Z,24.67
2019-01-17T07:11:11.295Z,25.17
2019-01-17T07:16:16.416Z,27.67
2019-01-17T07:21:21.661Z,28.70
2019-01-17T07:26:26.731Z,29.70
2019-01-17T07:31:32.121Z,30.50
2019-01-17T07:36:37.159Z,28.33
2019-01-17T07:41:42.699Z,25.67
2019-01-17T07:46:47.779Z,26.23
2019-01-17T07:51:52.890Z,26.90
2019-01-17T07:56:58.298Z,26.73
2019-01-17T08:02:03.485Z,24.87
2019-01-17T08:07:08.825Z,28.33
2019-01-17T08:12:14.500Z,26.40
2019-01-17T08:17:19.700Z,24.10
2019-01-17T08:22:25.769Z,21.53
2019-01-17T08:27:31.293Z,21.67
2019-01-17T08:32:36.704Z,23.47
2019-01-17T08:37:41.823Z,23.40
2019-01-17T08:42:47.268Z,22.23
2019-01-17T08:47:54.261Z,21.27
2019-01-17T08:52:59.383Z,25.27
2019-01-17T08:58:04.473Z,22.50
2019-01-17T09:03:12.604Z,27.00
2019-01-17T09:08:17.841Z,23.07
2019-01-17T09:13:23.179Z,22.80
2019-01-17T09:18:28.686Z,20.47
2019-01-17T09:23:34.019Z,20.40
2019-01-17T09:28:39.209Z,18.50
2019-01-17T09:33:44.406Z,18.40
2019-01-17T09:38:49.491Z,22.17
2019-01-17T09:43:54.679Z,25.63
2019-01-17T09:48:59.789Z,22.67
2019-01-17T09:54:04.929Z,18.67
2019-01-17T09:59:11.393Z,19.50
2019-01-17T10:04:17.102Z,15.90
2019-01-17T10:09:22.676Z,15.97
2019-01-17T10:14:30.815Z,18.97
2019-01-17T10:20:08.697Z,21.73
2019-01-17T10:26:06.740Z,18.83
2019-01-17T10:31:51.008Z,18.50
2019-01-17T10:37:43.389Z,18.90
2019-01-17T10:43:07.811Z,20.27
2019-01-17T10:48:49.098Z,18.60
2019-01-17T10:54:37.034Z,21.10
2019-01-17T10:59:50.192Z,21.20
2019-01-17T11:05:38.627Z,18.47
2019-01-17T11:11:23.020Z,18.20
2019-01-17T11:17:04.886Z,21.17
2019-01-17T11:22:34.971Z,17.73
2019-01-17T11:28:17.791Z,19.50
2019-01-17T11:33:58.003Z,20.60
2019-01-17T11:39:45.646Z,19.57
2019-01-17T11:45:15.162Z,21.30
2019-01-17T11:51:16.699Z,19.90
2019-01-17T11:57:06.458Z,18.77
2019-01-17T12:02:54.016Z,19.50
2019-01-17T12:07:59.197Z,18.00
2019-01-17T12:13:04.605Z,17.57
2019-01-17T12:18:09.719Z,18.63
2019-01-17T12:23:15.189Z,18.00
2019-01-17T12:28:20.353Z,17.97
2019-01-17T12:33:25.462Z,18.40
2019-01-17T12:38:30.538Z,17.87
2019-01-17T12:43:35.599Z,17.60
2019-01-17T12:48:40.849Z,18.83
2019-01-17T12:53:46.348Z,16.07
2019-01-17T12:58:51.495Z,18.73
2019-01-17T13:03:57.885Z,18.27
2019-01-17T13:09:04.783Z,18.77
2019-01-17T13:14:11.301Z,18.27
2019-01-17T13:19:16.762Z,18.70
2019-01-17T13:24:22.026Z,20.00
2019-01-17T13:29:27.069Z,20.30
2019-01-17T13:34:32.163Z,19.80
2019-01-17T13:39:37.354Z,22.63
2019-01-17T13:44:42.333Z,18.57
2019-01-17T13:49:47.443Z,18.97
2019-01-17T13:54:52.557Z,22.63
2019-01-17T13:59:57.763Z,19.00
2019-01-17T14:05:03.867Z,19.17
2019-01-17T14:10:09.580Z,20.50
2019-01-17T14:15:33.057Z,17.60
2019-01-17T14:20:47.405Z,18.50
2019-01-17T14:25:52.614Z,15.67
2019-01-17T14:30:58.123Z,17.83
2019-01-17T14:36:03.192Z,19.87
2019-01-17T14:41:08.457Z,18.70
2019-01-17T14:46:13.565Z,20.60
2019-01-17T14:51:18.883Z,21.23
2019-01-17T14:56:24.863Z,22.47
2019-01-17T15:01:30.067Z,20.80
2019-01-17T15:06:35.258Z,23.47
2019-01-17T15:11:46.081Z,19.80
2019-01-17T15:16:52.468Z,22.23
2019-01-17T15:22:05.453Z,26.33
2019-01-17T15:27:10.499Z,18.30
2019-01-17T15:32:15.766Z,18.93
2019-01-17T15:37:20.903Z,22.73
2019-01-17T15:42:26.272Z,19.10
2019-01-17T15:47:31.828Z,19.73
2019-01-17T15:52:37.347Z,22.60
2019-01-17T15:57:42.460Z,19.13
2019-01-17T16:02:47.559Z,24.07
2019-01-17T16:07:52.630Z,22.00
2019-01-17T16:12:57.705Z,21.43
2019-01-17T16:18:04.394Z,21.70
2019-01-17T16:23:10.571Z,16.83
2019-01-17T16:28:16.333Z,16.53
2019-01-17T16:33:21.837Z,18.60
2019-01-17T16:38:28.545Z,21.83
2019-01-17T16:43:34.894Z,24.43
2019-01-17T16:48:40.890Z,22.70
2019-01-17T16:53:47.171Z,25.27
2019-01-17T16:58:52.356Z,23.03
2019-01-17T17:03:57.418Z,22.23
2019-01-17T17:09:09.798Z,23.63
2019-01-17T17:14:14.925Z,23.87
2019-01-17T17:19:20.335Z,28.07
2019-01-17T17:24:25.724Z,26.30
2019-01-17T17:29:30.773Z,25.60
2019-01-17T17:34:39.036Z,27.10
2019-01-17T17:39:44.453Z,24.97
2019-01-17T17:44:49.581Z,24.03
2019-01-17T17:49:59.401Z,27.20
2019-01-17T17:55:04.956Z,26.03
2019-01-17T18:00:27.329Z,25.53
2019-01-17T18:05:32.558Z,28.10
2019-01-17T18:10:37.679Z,26.17
2019-01-17T18:15:42.797Z,25.83
2019-01-17T18:20:47.948Z,25.57
2019-01-17T18:25:53.005Z,28.90
2019-01-17T18:30:58.190Z,27.87
2019-01-17T18:36:03.681Z,24.73
2019-01-17T18:41:11.447Z,23.80
2019-01-17T18:46:16.892Z,24.67
2019-01-17T18:51:22.826Z,26.20
2019-01-17T18:56:28.762Z,29.93
2019-01-17T19:01:33.859Z,28.97
2019-01-17T19:06:39.140Z,26.57
2019-01-17T19:11:45.150Z,24.77
2019-01-17T19:16:50.728Z,21.63
2019-01-17T19:21:56.040Z,24.70
2019-01-17T19:27:01.177Z,24.93
2019-01-17T19:32:06.623Z,24.73
2019-01-17T19:37:11.777Z,23.17
2019-01-17T19:42:17.020Z,22.57
2019-01-17T19:47:22.100Z,23.83
2019-01-17T19:52:27.310Z,23.43
2019-01-17T19:57:32.327Z,24.47
2019-01-17T20:02:37.554Z,24.93
2019-01-17T20:07:42.731Z,24.67
2019-01-17T20:12:48.446Z,24.27
2019-01-17T20:17:53.960Z,26.63
2019-01-17T20:22:59.162Z,26.43
2019-01-17T20:28:04.473Z,24.57
2019-01-17T20:33:09.998Z,30.20
2019-01-17T20:38:15.306Z,27.40
2019-01-17T20:43:20.472Z,28.90
2019-01-17T20:48:25.883Z,30.53
2019-01-17T20:53:31.218Z,30.00
2019-01-17T20:58:42.255Z,30.63
2019-01-17T21:03:44.548Z,30.80
2019-01-17T21:08:49.721Z,30.77
2019-01-17T21:13:54.768Z,29.53
2019-01-17T21:18:59.958Z,44.30
2019-01-17T21:24:05.178Z,31.60
2019-01-17T21:29:19.755Z,33.47
2019-01-17T21:34:25.883Z,29.10
2019-01-17T21:39:31.441Z,29.50
2019-01-17T21:44:36.634Z,31.13
2019-01-17T21:49:42.184Z,33.53
2019-01-17T21:54:47.210Z,34.40
2019-01-17T21:59:54.895Z,34.60
2019-01-17T22:05:00.800Z,34.67
2019-01-17T22:10:11.708Z,37.23
2019-01-17T22:15:19.114Z,35.73
2019-01-17T22:20:24.430Z,34.33
2019-01-17T22:25:34.468Z,36.33
2019-01-17T22:30:40.905Z,34.03
2019-01-17T22:35:46.034Z,32.23
2019-01-17T22:40:54.578Z,33.07
2019-01-17T22:45:59.699Z,35.03
2019-01-17T22:51:14.916Z,37.50
2019-01-17T22:56:20.474Z,41.40
2019-01-17T23:01:30.256Z,35.77
2019-01-17T23:06:35.291Z,34.30
2019-01-17T23:11:41.071Z,35.93
2019-01-17T23:16:46.352Z,35.43
2019-01-17T23:21:51.571Z,33.70
2019-01-17T23:26:56.728Z,32.00
2019-01-17T23:32:05.126Z,34.20
2019-01-17T23:37:10.624Z,38.57
2019-01-17T23:42:18.440Z,34.87
2019-01-17T23:47:23.664Z,30.67
2019-01-17T23:52:29.732Z,29.63
2019-01-17T23:57:36.873Z,30.90
